PAVD METAR and TAF weather

Enter ICAO airport designator
Station Type Date Time Source
PAVD METAR 2020/07/09 06:56 UTC NOAA

PAVD 090656Z AUTO 06004KT 10SM BKN025 OVC033 13/12 A2989 RMK AO2 SLP119 T01330117


Station Type Date Time Source
PAVD Decoded METAR 2020/07/09 06:56 UTC NOAA

Valdez 2, AK, United States (PAVD) 61-08N 146-16W
Jul 09, 2020 - 02:56 AM EDT / 2020.07.09 0656 UTC
Wind: from the ENE (060 degrees) at 5 MPH (4 KT):0
Visibility: 10 mile(s):0
Sky conditions: overcast
Temperature: 55.9 F (13.3 C)
Dew Point: 53.1 F (11.7 C)
Relative Humidity: 90%
Pressure (altimeter): 29.89 in. Hg (1012 hPa)
ob: PAVD 090656Z AUTO 06004KT 10SM BKN025 OVC033 13/12 A2989 RMK AO2 SLP119 T01330117
cycle: 7

Station Type Date Time Source
PAVD TAF 2020/07/09 06:39 UTC NOAA

TAF PAVD 090536Z 0906/1006 VRB04KT P6SM VCSH BKN045
TEMPO 0906/0910 1SM BR BKN005 BKN012
FM091000 VRB03KT 1SM BR BKN005 BKN012
FM091800 04006KT P6SM BKN045
FM092100 24007KT P6SM VCSH BKN060
AMD LTD TO CLD VIS AND WIND

Example: see airport list